sensor_id;sensor_type;location;lat;lon;timestamp;P1;P2;P0
68841;PMS5003;55849;48.482;2.332;2023-08-24T05:40:34;13.75;10.50;8.00
68841;PMS5003;55849;48.482;2.332;2023-08-24T05:43:37;9.50;8.50;7.00
68841;PMS5003;55849;48.482;2.332;2023-08-24T05:46:39;10.00;10.00;7.00
68841;PMS5003;55849;48.482;2.332;2023-08-24T05:49:40;10.25;8.00;7.00
68841;PMS5003;55849;48.482;2.332;2023-08-24T05:52:42;9.50;9.50;7.00
68841;PMS5003;55849;48.482;2.332;2023-08-24T05:55:45;11.75;11.75;6.75
68841;PMS5003;55849;48.482;2.332;2023-08-24T05:58:46;7.75;7.50;6.25
68841;PMS5003;55849;48.482;2.332;2023-08-24T06:01:48;8.25;8.25;7.00
68841;PMS5003;55849;48.482;2.332;2023-08-24T06:04:49;10.75;10.25;7.00
68841;PMS5003;55849;48.482;2.332;2023-08-24T06:07:51;12.00;11.00;7.00
68841;PMS5003;55849;48.482;2.332;2023-08-24T06:10:56;9.75;9.75;7.75
68841;PMS5003;55849;48.482;2.332;2023-08-24T06:13:58;10.00;10.00;7.00
68841;PMS5003;55849;48.482;2.332;2023-08-24T06:17:00;8.75;8.75;7.50
68841;PMS5003;55849;48.482;2.332;2023-08-24T06:20:02;10.00;9.25;7.00
68841;PMS5003;55849;48.482;2.332;2023-08-24T06:23:04;13.00;11.75;8.25
68841;PMS5003;55849;48.482;2.332;2023-08-24T06:26:09;10.00;8.75;6.75
68841;PMS5003;55849;48.482;2.332;2023-08-24T06:29:10;8.25;8.25;7.00
68841;PMS5003;55849;48.482;2.332;2023-08-24T06:32:12;10.50;10.00;7.75
68841;PMS5003;55849;48.482;2.332;2023-08-24T06:35:13;12.00;11.00;8.25
68841;PMS5003;55849;48.482;2.332;2023-08-24T06:38:15;11.75;8.50;7.00
68841;PMS5003;55849;48.482;2.332;2023-08-24T06:41:19;11.25;9.50;7.75
68841;PMS5003;55849;48.482;2.332;2023-08-24T06:44:20;12.75;12.25;8.75
68841;PMS5003;55849;48.482;2.332;2023-08-24T06:47:22;13.25;12.25;8.75
68841;PMS5003;55849;48.482;2.332;2023-08-24T06:50:24;11.50;11.50;8.25
68841;PMS5003;55849;48.482;2.332;2023-08-24T06:53:26;10.75;10.00;8.00
68841;PMS5003;55849;48.482;2.332;2023-08-24T06:56:29;13.75;12.50;8.25
68841;PMS5003;55849;48.482;2.332;2023-08-24T06:59:31;13.25;10.25;8.25
68841;PMS5003;55849;48.482;2.332;2023-08-24T07:02:32;12.25;10.50;8.25
68841;PMS5003;55849;48.482;2.332;2023-08-24T07:05:34;11.25;11.25;9.00
68841;PMS5003;55849;48.482;2.332;2023-08-24T07:08:36;11.25;11.25;8.25
68841;PMS5003;55849;48.482;2.332;2023-08-24T07:11:39;11.75;10.25;8.25
68841;PMS5003;55849;48.482;2.332;2023-08-24T07:14:40;13.25;10.25;8.00
68841;PMS5003;55849;48.482;2.332;2023-08-24T07:17:42;15.00;12.00;8.50
68841;PMS5003;55849;48.482;2.332;2023-08-24T07:20:43;11.50;10.50;8.50
68841;PMS5003;55849;48.482;2.332;2023-08-24T07:23:45;13.50;13.00;10.50
68841;PMS5003;55849;48.482;2.332;2023-08-24T07:26:48;11.75;11.00;8.50
68841;PMS5003;55849;48.482;2.332;2023-08-24T07:29:49;12.50;12.00;9.50
68841;PMS5003;55849;48.482;2.332;2023-08-24T07:32:51;13.25;10.50;8.50
68841;PMS5003;55849;48.482;2.332;2023-08-24T07:35:53;10.00;9.50;7.75
68841;PMS5003;55849;48.482;2.332;2023-08-24T07:38:54;13.25;12.75;9.75
68841;PMS5003;55849;48.482;2.332;2023-08-24T07:41:57;10.25;9.25;7.25
68841;PMS5003;55849;48.482;2.332;2023-08-24T07:44:59;12.00;11.00;9.00
68841;PMS5003;55849;48.482;2.332;2023-08-24T07:48:00;12.00;9.00;6.50
68841;PMS5003;55849;48.482;2.332;2023-08-24T07:51:02;13.25;12.25;10.00
68841;PMS5003;55849;48.482;2.332;2023-08-24T07:54:04;10.25;10.25;9.00
68841;PMS5003;55849;48.482;2.332;2023-08-24T07:57:08;11.75;11.25;8.25
68841;PMS5003;55849;48.482;2.332;2023-08-24T08:00:10;14.75;12.00;8.75
68841;PMS5003;55849;48.482;2.332;2023-08-24T08:03:13;11.50;11.50;8.50
68841;PMS5003;55849;48.482;2.332;2023-08-24T08:06:15;11.00;11.00;8.25
68841;PMS5003;55849;48.482;2.332;2023-08-24T08:09:17;12.75;12.75;9.75
68841;PMS5003;55849;48.482;2.332;2023-08-24T08:12:20;17.25;11.25;9.25
68841;PMS5003;55849;48.482;2.332;2023-08-24T08:15:21;14.50;12.50;9.50
68841;PMS5003;55849;48.482;2.332;2023-08-24T08:18:24;13.75;11.00;9.25
68841;PMS5003;55849;48.482;2.332;2023-08-24T08:21:25;11.75;11.75;9.00
68841;PMS5003;55849;48.482;2.332;2023-08-24T08:24:27;10.75;10.75;8.75
68841;PMS5003;55849;48.482;2.332;2023-08-24T08:27:30;12.50;10.75;8.75
68841;PMS5003;55849;48.482;2.332;2023-08-24T08:30:33;10.75;10.75;8.25
68841;PMS5003;55849;48.482;2.332;2023-08-24T08:33:34;11.25;10.50;9.25
68841;PMS5003;55849;48.482;2.332;2023-08-24T08:36:36;10.75;10.25;8.25
68841;PMS5003;55849;48.482;2.332;2023-08-24T08:39:37;13.50;11.00;9.50
68841;PMS5003;55849;48.482;2.332;2023-08-24T08:42:40;9.00;9.00;7.25
68841;PMS5003;55849;48.482;2.332;2023-08-24T08:45:42;13.00;12.50;10.00
68841;PMS5003;55849;48.482;2.332;2023-08-24T08:48:44;11.00;11.00;7.25
68841;PMS5003;55849;48.482;2.332;2023-08-24T08:51:46;13.00;10.25;8.25
68841;PMS5003;55849;48.482;2.332;2023-08-24T08:54:48;12.75;12.25;8.75
68841;PMS5003;55849;48.482;2.332;2023-08-24T08:57:51;13.50;13.50;9.25
68841;PMS5003;55849;48.482;2.332;2023-08-24T09:00:58;11.75;11.75;8.25
68841;PMS5003;55849;48.482;2.332;2023-08-24T09:04:03;12.25;12.25;10.25
68841;PMS5003;55849;48.482;2.332;2023-08-24T09:07:07;14.75;12.25;9.50
68841;PMS5003;55849;48.482;2.332;2023-08-24T09:10:11;11.25;11.25;10.25
68841;PMS5003;55849;48.482;2.332;2023-08-24T09:13:14;11.25;11.25;9.25
68841;PMS5003;55849;48.482;2.332;2023-08-24T09:16:16;15.00;13.00;9.75
68841;PMS5003;55849;48.482;2.332;2023-08-24T09:19:18;13.00;12.25;9.50
68841;PMS5003;55849;48.482;2.332;2023-08-24T09:22:19;14.50;14.50;11.00
68841;PMS5003;55849;48.482;2.332;2023-08-24T09:25:21;12.75;11.25;8.25
68841;PMS5003;55849;48.482;2.332;2023-08-24T09:28:24;14.25;13.25;10.25
68841;PMS5003;55849;48.482;2.332;2023-08-24T09:31:28;20.00;17.25;13.50
68841;PMS5003;55849;48.482;2.332;2023-08-24T09:34:37;14.50;14.50;11.50
68841;PMS5003;55849;48.482;2.332;2023-08-24T09:37:38;13.00;10.50;8.50
68841;PMS5003;55849;48.482;2.332;2023-08-24T09:40:44;13.00;11.50;9.75
68841;PMS5003;55849;48.482;2.332;2023-08-24T09:43:49;13.00;13.00;10.50
68841;PMS5003;55849;48.482;2.332;2023-08-24T09:46:50;12.25;12.25;9.25
68841;PMS5003;55849;48.482;2.332;2023-08-24T09:49:52;11.75;11.75;9.00
68841;PMS5003;55849;48.482;2.332;2023-08-24T09:52:53;10.25;10.25;7.25
68841;PMS5003;55849;48.482;2.332;2023-08-24T09:56:01;13.50;12.50;10.25
68841;PMS5003;55849;48.482;2.332;2023-08-24T09:59:10;13.50;11.50;7.50
68841;PMS5003;55849;48.482;2.332;2023-08-24T10:02:15;18.25;13.75;9.50
68841;PMS5003;55849;48.482;2.332;2023-08-24T10:05:19;10.75;10.75;9.25
68841;PMS5003;55849;48.482;2.332;2023-08-24T10:08:24;12.50;11.25;9.00
68841;PMS5003;55849;48.482;2.332;2023-08-24T10:11:28;22.50;21.50;17.50
68841;PMS5003;55849;48.482;2.332;2023-08-24T10:14:34;13.50;12.50;10.50
68841;PMS5003;55849;48.482;2.332;2023-08-24T10:17:41;11.25;11.25;9.00
68841;PMS5003;55849;48.482;2.332;2023-08-24T10:20:44;15.50;14.25;11.50
68841;PMS5003;55849;48.482;2.332;2023-08-24T10:23:47;14.00;12.50;8.00
68841;PMS5003;55849;48.482;2.332;2023-08-24T10:26:49;14.25;13.00;11.25
68841;PMS5003;55849;48.482;2.332;2023-08-24T10:29:53;24.50;21.50;14.00
68841;PMS5003;55849;48.482;2.332;2023-08-24T10:32:55;15.50;11.50;9.50
68841;PMS5003;55849;48.482;2.332;2023-08-24T10:35:57;11.50;10.00;7.25
68841;PMS5003;55849;48.482;2.332;2023-08-24T10:38:59;9.25;9.25;8.00
68841;PMS5003;55849;48.482;2.332;2023-08-24T10:42:05;11.50;10.50;6.75
68841;PMS5003;55849;48.482;2.332;2023-08-24T10:45:14;12.75;11.50;8.00
68841;PMS5003;55849;48.482;2.332;2023-08-24T10:48:16;11.25;11.25;9.00
68841;PMS5003;55849;48.482;2.332;2023-08-24T10:51:18;11.25;11.25;7.50
68841;PMS5003;55849;48.482;2.332;2023-08-24T10:54:29;13.25;10.75;9.00
68841;PMS5003;55849;48.482;2.332;2023-08-24T10:57:34;17.25;12.75;9.75
68841;PMS5003;55849;48.482;2.332;2023-08-24T11:00:38;12.50;12.25;9.75
68841;PMS5003;55849;48.482;2.332;2023-08-24T11:03:41;18.50;15.25;11.25
68841;PMS5003;55849;48.482;2.332;2023-08-24T11:06:52;13.75;12.75;10.25
68841;PMS5003;55849;48.482;2.332;2023-08-24T11:09:55;14.75;13.75;9.75
68841;PMS5003;55849;48.482;2.332;2023-08-24T11:13:07;13.75;13.25;10.25
68841;PMS5003;55849;48.482;2.332;2023-08-24T11:16:12;13.75;13.75;10.75
68841;PMS5003;55849;48.482;2.332;2023-08-24T11:19:46;17.25;14.50;10.25
68841;PMS5003;55849;48.482;2.332;2023-08-24T11:22:49;14.00;14.00;10.50
68841;PMS5003;55849;48.482;2.332;2023-08-24T11:25:51;15.50;13.75;12.00
68841;PMS5003;55849;48.482;2.332;2023-08-24T11:28:56;16.25;15.00;10.50
68841;PMS5003;55849;48.482;2.332;2023-08-24T11:31:59;16.75;15.75;11.50
68841;PMS5003;55849;48.482;2.332;2023-08-24T11:35:01;19.25;14.25;10.25
68841;PMS5003;55849;48.482;2.332;2023-08-24T11:38:03;14.50;14.50;11.50
68841;PMS5003;55849;48.482;2.332;2023-08-24T11:41:11;18.00;15.25;12.25
68841;PMS5003;55849;48.482;2.332;2023-08-24T11:44:14;19.00;18.00;11.75
68841;PMS5003;55849;48.482;2.332;2023-08-24T11:47:17;17.25;16.00;11.75
68841;PMS5003;55849;48.482;2.332;2023-08-24T11:50:21;17.50;15.50;12.00
68841;PMS5003;55849;48.482;2.332;2023-08-24T11:53:24;15.25;13.75;9.00
68841;PMS5003;55849;48.482;2.332;2023-08-24T11:56:28;17.00;14.25;10.50
68841;PMS5003;55849;48.482;2.332;2023-08-24T11:59:29;16.00;16.00;11.50
68841;PMS5003;55849;48.482;2.332;2023-08-24T12:02:33;12.00;11.50;11.25
68841;PMS5003;55849;48.482;2.332;2023-08-24T12:05:35;16.25;16.25;12.00
68841;PMS5003;55849;48.482;2.332;2023-08-24T12:08:37;16.75;16.00;11.75
68841;PMS5003;55849;48.482;2.332;2023-08-24T12:11:39;16.25;16.25;12.00
68841;PMS5003;55849;48.482;2.332;2023-08-24T12:14:40;14.25;14.25;11.25
68841;PMS5003;55849;48.482;2.332;2023-08-24T12:17:44;19.00;17.00;12.25
68841;PMS5003;55849;48.482;2.332;2023-08-24T12:20:46;16.25;16.25;11.75
68841;PMS5003;55849;48.482;2.332;2023-08-24T12:23:55;17.75;16.75;12.50
68841;PMS5003;55849;48.482;2.332;2023-08-24T12:26:58;17.75;17.75;13.25
68841;PMS5003;55849;48.482;2.332;2023-08-24T12:30:00;16.00;14.50;11.00
68841;PMS5003;55849;48.482;2.332;2023-08-24T12:33:03;19.25;17.25;13.25
68841;PMS5003;55849;48.482;2.332;2023-08-24T12:36:05;17.50;17.50;13.25
68841;PMS5003;55849;48.482;2.332;2023-08-24T12:39:07;19.75;17.75;12.25
68841;PMS5003;55849;48.482;2.332;2023-08-24T12:42:10;19.00;17.75;12.75
68841;PMS5003;55849;48.482;2.332;2023-08-24T12:45:12;20.25;19.50;13.25
68841;PMS5003;55849;48.482;2.332;2023-08-24T12:48:15;21.00;21.00;14.25
68841;PMS5003;55849;48.482;2.332;2023-08-24T12:51:16;19.00;17.75;13.25
68841;PMS5003;55849;48.482;2.332;2023-08-24T12:54:18;19.00;17.25;12.25
68841;PMS5003;55849;48.482;2.332;2023-08-24T12:57:20;23.00;19.75;14.00
68841;PMS5003;55849;48.482;2.332;2023-08-24T13:00:21;21.75;19.75;13.25
68841;PMS5003;55849;48.482;2.332;2023-08-24T13:03:24;18.25;18.25;13.00
68841;PMS5003;55849;48.482;2.332;2023-08-24T13:06:26;18.50;17.50;13.75
68841;PMS5003;55849;48.482;2.332;2023-08-24T13:09:27;19.75;16.50;12.00
68841;PMS5003;55849;48.482;2.332;2023-08-24T13:12:29;23.25;19.50;13.50
68841;PMS5003;55849;48.482;2.332;2023-08-24T13:15:31;17.00;16.75;12.50
68841;PMS5003;55849;48.482;2.332;2023-08-24T13:18:34;14.00;13.25;10.00
68841;PMS5003;55849;48.482;2.332;2023-08-24T13:21:35;13.25;9.25;8.00
68841;PMS5003;55849;48.482;2.332;2023-08-24T13:24:37;7.00;6.00;4.50
68841;PMS5003;55849;48.482;2.332;2023-08-24T13:27:39;4.75;4.75;3.00
68841;PMS5003;55849;48.482;2.332;2023-08-24T13:30:41;6.25;3.75;3.00
68841;PMS5003;55849;48.482;2.332;2023-08-24T13:33:44;5.75;4.75;2.50
68841;PMS5003;55849;48.482;2.332;2023-08-24T13:36:46;2.75;2.75;2.75
68841;PMS5003;55849;48.482;2.332;2023-08-24T13:39:47;5.00;5.00;3.00
68841;PMS5003;55849;48.482;2.332;2023-08-24T13:42:49;4.00;4.00;3.00
68841;PMS5003;55849;48.482;2.332;2023-08-24T13:45:51;4.00;2.00;2.00
68841;PMS5003;55849;48.482;2.332;2023-08-24T13:48:53;4.00;4.00;3.00
68841;PMS5003;55849;48.482;2.332;2023-08-24T13:51:55;2.00;2.00;2.00
68841;PMS5003;55849;48.482;2.332;2023-08-24T13:54:57;3.00;2.00;2.00
68841;PMS5003;55849;48.482;2.332;2023-08-24T13:57:59;2.25;1.75;1.00
68841;PMS5003;55849;48.482;2.332;2023-08-24T14:01:00;2.00;2.00;2.00
68841;PMS5003;55849;48.482;2.332;2023-08-24T14:04:04;2.50;2.50;2.00
68841;PMS5003;55849;48.482;2.332;2023-08-24T14:07:06;2.00;2.00;2.00
68841;PMS5003;55849;48.482;2.332;2023-08-24T14:10:08;2.25;2.25;2.00
68841;PMS5003;55849;48.482;2.332;2023-08-24T14:13:10;3.25;3.00;2.00
68841;PMS5003;55849;48.482;2.332;2023-08-24T14:16:11;4.50;3.50;2.25
68841;PMS5003;55849;48.482;2.332;2023-08-24T14:19:14;4.25;3.25;3.25
68841;PMS5003;55849;48.482;2.332;2023-08-24T14:22:16;3.75;2.75;2.00
68841;PMS5003;55849;48.482;2.332;2023-08-24T14:25:17;4.00;3.00;3.00
68841;PMS5003;55849;48.482;2.332;2023-08-24T14:28:20;4.75;3.50;2.50
68841;PMS5003;55849;48.482;2.332;2023-08-24T14:31:23;2.00;2.00;2.00
68841;PMS5003;55849;48.482;2.332;2023-08-24T14:34:27;2.00;2.00;1.50
68841;PMS5003;55849;48.482;2.332;2023-08-24T14:37:29;3.50;2.25;2.00
68841;PMS5003;55849;48.482;2.332;2023-08-24T14:40:30;2.25;1.75;1.75
68841;PMS5003;55849;48.482;2.332;2023-08-24T14:43:32;1.25;1.25;1.00
68841;PMS5003;55849;48.482;2.332;2023-08-24T14:46:34;3.25;3.25;2.25
68841;PMS5003;55849;48.482;2.332;2023-08-24T14:49:37;2.00;2.00;1.25
68841;PMS5003;55849;48.482;2.332;2023-08-24T14:52:39;3.00;3.00;2.75
68841;PMS5003;55849;48.482;2.332;2023-08-24T14:55:41;5.00;3.00;2.00
68841;PMS5003;55849;48.482;2.332;2023-08-24T14:58:43;3.25;2.75;2.25
68841;PMS5003;55849;48.482;2.332;2023-08-24T15:01:44;2.00;2.00;1.75
68841;PMS5003;55849;48.482;2.332;2023-08-24T15:04:47;3.00;3.00;3.00
68841;PMS5003;55849;48.482;2.332;2023-08-24T15:07:49;3.25;2.75;2.25
68841;PMS5003;55849;48.482;2.332;2023-08-24T15:10:53;5.00;3.00;2.25
68841;PMS5003;55849;48.482;2.332;2023-08-24T15:13:55;4.00;4.00;2.25
68841;PMS5003;55849;48.482;2.332;2023-08-24T15:16:57;2.00;2.00;2.00
68841;PMS5003;55849;48.482;2.332;2023-08-24T15:20:00;5.00;5.00;4.00
68841;PMS5003;55849;48.482;2.332;2023-08-24T15:23:05;2.50;2.50;2.50
68841;PMS5003;55849;48.482;2.332;2023-08-24T15:26:07;4.75;4.00;2.50
68841;PMS5003;55849;48.482;2.332;2023-08-24T15:29:11;4.00;4.00;3.00
68841;PMS5003;55849;48.482;2.332;2023-08-24T15:32:15;4.00;4.00;3.00
68841;PMS5003;55849;48.482;2.332;2023-08-24T15:35:18;4.00;4.00;3.00
68841;PMS5003;55849;48.482;2.332;2023-08-24T15:38:19;5.25;5.00;4.00
68841;PMS5003;55849;48.482;2.332;2023-08-24T15:41:21;5.00;4.75;3.00
68841;PMS5003;55849;48.482;2.332;2023-08-24T15:44:22;3.50;3.50;3.00
68841;PMS5003;55849;48.482;2.332;2023-08-24T15:47:24;5.25;2.25;2.00
68841;PMS5003;55849;48.482;2.332;2023-08-24T15:50:27;3.25;3.25;2.50
68841;PMS5003;55849;48.482;2.332;2023-08-24T15:53:29;4.00;4.00;3.00
68841;PMS5003;55849;48.482;2.332;2023-08-24T15:56:31;5.25;3.75;2.25
68841;PMS5003;55849;48.482;2.332;2023-08-24T15:59:32;5.75;3.00;2.00
68841;PMS5003;55849;48.482;2.332;2023-08-24T16:02:34;5.00;4.00;3.00
68841;PMS5003;55849;48.482;2.332;2023-08-24T16:05:37;6.00;3.00;2.00
68841;PMS5003;55849;48.482;2.332;2023-08-24T16:08:38;2.50;2.50;2.00
68841;PMS5003;55849;48.482;2.332;2023-08-24T16:11:40;4.00;3.00;2.25
68841;PMS5003;55849;48.482;2.332;2023-08-24T16:14:42;4.75;2.75;2.25
68841;PMS5003;55849;48.482;2.332;2023-08-24T16:17:43;3.00;3.00;2.50
68841;PMS5003;55849;48.482;2.332;2023-08-24T16:20:48;3.00;3.00;2.00
68841;PMS5003;55849;48.482;2.332;2023-08-24T16:23:49;5.75;5.75;3.00
68841;PMS5003;55849;48.482;2.332;2023-08-24T16:26:51;3.00;3.00;2.25
68841;PMS5003;55849;48.482;2.332;2023-08-24T16:29:53;2.50;2.50;2.00
68841;PMS5003;55849;48.482;2.332;2023-08-24T16:32:54;3.00;3.00;2.75
68841;PMS5003;55849;48.482;2.332;2023-08-24T16:35:57;3.75;3.75;3.00
68841;PMS5003;55849;48.482;2.332;2023-08-24T16:38:59;3.00;3.00;2.00
68841;PMS5003;55849;48.482;2.332;2023-08-24T16:42:00;2.75;2.75;2.50
68841;PMS5003;55849;48.482;2.332;2023-08-24T16:45:03;3.00;2.00;2.00
68841;PMS5003;55849;48.482;2.332;2023-08-24T16:48:05;3.00;3.00;2.00
68841;PMS5003;55849;48.482;2.332;2023-08-24T16:51:09;5.75;1.75;1.25
68841;PMS5003;55849;48.482;2.332;2023-08-24T16:54:10;6.50;5.00;3.75
68841;PMS5003;55849;48.482;2.332;2023-08-24T16:57:12;5.00;4.00;2.00
68841;PMS5003;55849;48.482;2.332;2023-08-24T17:00:15;4.75;4.75;3.00
68841;PMS5003;55849;48.482;2.332;2023-08-24T17:03:17;3.25;3.25;3.00
68841;PMS5003;55849;48.482;2.332;2023-08-24T17:06:20;3.00;3.00;3.00
68841;PMS5003;55849;48.482;2.332;2023-08-24T17:09:22;3.00;3.00;2.00
68841;PMS5003;55849;48.482;2.332;2023-08-24T17:12:23;3.00;3.00;2.00
68841;PMS5003;55849;48.482;2.332;2023-08-24T17:15:25;2.00;2.00;1.75
68841;PMS5003;55849;48.482;2.332;2023-08-24T17:18:27;3.00;3.00;2.00
68841;PMS5003;55849;48.482;2.332;2023-08-24T17:21:30;4.00;2.25;2.00
68841;PMS5003;55849;48.482;2.332;2023-08-24T17:24:31;3.50;3.50;3.00
68841;PMS5003;55849;48.482;2.332;2023-08-24T17:27:33;3.50;3.50;2.25
68841;PMS5003;55849;48.482;2.332;2023-08-24T17:30:35;3.00;3.00;2.00
68841;PMS5003;55849;48.482;2.332;2023-08-24T17:33:36;4.25;3.00;2.00
68841;PMS5003;55849;48.482;2.332;2023-08-24T17:36:39;2.75;2.75;2.50
68841;PMS5003;55849;48.482;2.332;2023-08-24T17:39:41;3.25;3.25;2.00
68841;PMS5003;55849;48.482;2.332;2023-08-24T17:42:43;4.00;2.25;2.00
68841;PMS5003;55849;48.482;2.332;2023-08-24T17:45:44;2.00;2.00;1.75
68841;PMS5003;55849;48.482;2.332;2023-08-24T17:48:46;3.00;3.00;3.00
68841;PMS5003;55849;48.482;2.332;2023-08-24T17:51:49;4.00;3.00;2.00
68841;PMS5003;55849;48.482;2.332;2023-08-24T17:54:50;3.00;3.00;2.50
68841;PMS5003;55849;48.482;2.332;2023-08-24T17:57:52;3.25;2.25;2.00
68841;PMS5003;55849;48.482;2.332;2023-08-24T18:00:54;3.00;3.00;2.00
68841;PMS5003;55849;48.482;2.332;2023-08-24T18:03:56;5.50;2.75;2.25
68841;PMS5003;55849;48.482;2.332;2023-08-24T18:06:59;2.25;2.25;2.00
68841;PMS5003;55849;48.482;2.332;2023-08-24T18:10:00;5.25;2.00;1.25
68841;PMS5003;55849;48.482;2.332;2023-08-24T18:13:02;4.00;4.00;3.25
68841;PMS5003;55849;48.482;2.332;2023-08-24T18:16:04;2.75;2.75;2.50
68841;PMS5003;55849;48.482;2.332;2023-08-24T18:19:05;4.75;3.75;2.50
68841;PMS5003;55849;48.482;2.332;2023-08-24T18:22:08;3.25;3.25;2.50
68841;PMS5003;55849;48.482;2.332;2023-08-24T18:25:10;4.00;4.00;3.00
68841;PMS5003;55849;48.482;2.332;2023-08-24T18:28:12;3.00;3.00;2.00
68841;PMS5003;55849;48.482;2.332;2023-08-24T18:31:13;2.50;2.50;2.00
68841;PMS5003;55849;48.482;2.332;2023-08-24T18:34:15;2.75;2.75;2.00
68841;PMS5003;55849;48.482;2.332;2023-08-24T18:37:18;5.00;5.00;3.50
68841;PMS5003;55849;48.482;2.332;2023-08-24T18:40:19;8.00;4.00;3.00
68841;PMS5003;55849;48.482;2.332;2023-08-24T18:43:21;3.25;3.25;2.75
68841;PMS5003;55849;48.482;2.332;2023-08-24T18:46:23;4.00;4.00;3.00
68841;PMS5003;55849;48.482;2.332;2023-08-24T18:49:24;3.00;3.00;2.50
68841;PMS5003;55849;48.482;2.332;2023-08-24T18:52:28;4.00;4.00;2.75
68841;PMS5003;55849;48.482;2.332;2023-08-24T18:55:29;3.00;3.00;2.50
68841;PMS5003;55849;48.482;2.332;2023-08-24T18:58:31;2.75;2.75;2.00
68841;PMS5003;55849;48.482;2.332;2023-08-24T19:01:32;3.00;3.00;2.00
68841;PMS5003;55849;48.482;2.332;2023-08-24T19:04:34;4.50;3.50;3.00
68841;PMS5003;55849;48.482;2.332;2023-08-24T19:07:37;3.25;3.25;2.00
68841;PMS5003;55849;48.482;2.332;2023-08-24T19:10:39;3.00;3.00;3.00
68841;PMS5003;55849;48.482;2.332;2023-08-24T19:13:40;7.00;6.00;4.00
68841;PMS5003;55849;48.482;2.332;2023-08-24T19:16:42;3.50;3.50;3.50
68841;PMS5003;55849;48.482;2.332;2023-08-24T19:19:44;5.25;5.00;3.75
68841;PMS5003;55849;48.482;2.332;2023-08-24T19:22:47;4.75;3.75;3.25
68841;PMS5003;55849;48.482;2.332;2023-08-24T19:25:48;5.00;5.00;3.00
68841;PMS5003;55849;48.482;2.332;2023-08-24T19:28:50;3.00;3.00;3.00
68841;PMS5003;55849;48.482;2.332;2023-08-24T19:31:52;5.00;5.00;3.00
68841;PMS5003;55849;48.482;2.332;2023-08-24T19:34:53;5.00;4.75;3.25
68841;PMS5003;55849;48.482;2.332;2023-08-24T19:37:56;3.00;3.00;3.00
68841;PMS5003;55849;48.482;2.332;2023-08-24T19:40:59;5.00;3.25;2.50
68841;PMS5003;55849;48.482;2.332;2023-08-24T19:44:01;3.50;3.25;3.00
68841;PMS5003;55849;48.482;2.332;2023-08-24T19:47:03;5.75;3.00;2.75
68841;PMS5003;55849;48.482;2.332;2023-08-24T19:50:05;3.00;3.00;2.00
68841;PMS5003;55849;48.482;2.332;2023-08-24T19:53:09;5.75;5.75;3.75
68841;PMS5003;55849;48.482;2.332;2023-08-24T19:56:10;7.00;4.00;3.00
68841;PMS5003;55849;48.482;2.332;2023-08-24T19:59:12;6.00;6.00;4.00
68841;PMS5003;55849;48.482;2.332;2023-08-24T20:02:13;4.00;4.00;3.00
68841;PMS5003;55849;48.482;2.332;2023-08-24T20:05:15;7.25;4.00;3.00
68841;PMS5003;55849;48.482;2.332;2023-08-24T20:08:18;5.00;4.00;3.00
68841;PMS5003;55849;48.482;2.332;2023-08-24T20:11:20;5.00;4.25;3.00
68841;PMS5003;55849;48.482;2.332;2023-08-24T20:14:22;6.00;4.25;3.25
68841;PMS5003;55849;48.482;2.332;2023-08-24T20:17:27;5.00;5.00;4.00
68841;PMS5003;55849;48.482;2.332;2023-08-24T20:20:29;4.00;4.00;3.00
68841;PMS5003;55849;48.482;2.332;2023-08-24T20:23:32;4.00;4.00;3.00
68841;PMS5003;55849;48.482;2.332;2023-08-24T20:26:34;4.25;4.00;3.00
68841;PMS5003;55849;48.482;2.332;2023-08-24T20:29:36;5.25;5.25;4.00
68841;PMS5003;55849;48.482;2.332;2023-08-24T20:32:38;6.25;5.50;4.00
68841;PMS5003;55849;48.482;2.332;2023-08-24T20:35:39;4.00;3.50;2.25
68841;PMS5003;55849;48.482;2.332;2023-08-24T20:38:42;6.00;6.00;3.50
68841;PMS5003;55849;48.482;2.332;2023-08-24T20:41:45;4.00;4.00;3.00
68841;PMS5003;55849;48.482;2.332;2023-08-24T20:44:47;7.00;5.00;4.00
68841;PMS5003;55849;48.482;2.332;2023-08-24T20:47:49;4.50;4.50;3.00
68841;PMS5003;55849;48.482;2.332;2023-08-24T20:50:53;6.25;5.00;3.25
68841;PMS5003;55849;48.482;2.332;2023-08-24T20:53:58;5.00;4.25;3.50
68841;PMS5003;55849;48.482;2.332;2023-08-24T20:56:59;6.00;6.00;4.00
68841;PMS5003;55849;48.482;2.332;2023-08-24T21:00:01;4.00;4.00;2.75
68841;PMS5003;55849;48.482;2.332;2023-08-24T21:03:05;6.50;5.25;4.00
68841;PMS5003;55849;48.482;2.332;2023-08-24T21:06:07;6.25;5.50;4.00
68841;PMS5003;55849;48.482;2.332;2023-08-24T21:09:10;3.25;2.00;2.00
68841;PMS5003;55849;48.482;2.332;2023-08-24T21:12:12;6.75;5.00;3.75
68841;PMS5003;55849;48.482;2.332;2023-08-24T21:15:13;6.50;6.00;4.50
68841;PMS5003;55849;48.482;2.332;2023-08-24T21:18:15;9.50;5.00;3.00
68841;PMS5003;55849;48.482;2.332;2023-08-24T21:21:17;6.00;5.75;3.25
68841;PMS5003;55849;48.482;2.332;2023-08-24T21:24:20;5.00;5.00;4.00
68841;PMS5003;55849;48.482;2.332;2023-08-24T21:27:21;5.00;5.00;3.50
68841;PMS5003;55849;48.482;2.332;2023-08-24T21:30:23;5.00;5.00;4.00
68841;PMS5003;55849;48.482;2.332;2023-08-24T21:33:25;4.50;4.50;3.50
68841;PMS5003;55849;48.482;2.332;2023-08-24T21:36:26;9.00;6.00;4.50
68841;PMS5003;55849;48.482;2.332;2023-08-24T21:39:29;6.00;5.00;4.00
68841;PMS5003;55849;48.482;2.332;2023-08-24T21:42:31;5.75;4.50;3.75
68841;PMS5003;55849;48.482;2.332;2023-08-24T21:45:33;6.50;5.00;3.50
68841;PMS5003;55849;48.482;2.332;2023-08-24T21:48:34;6.00;5.75;3.75
68841;PMS5003;55849;48.482;2.332;2023-08-24T21:51:36;6.25;4.75;4.25
68841;PMS5003;55849;48.482;2.332;2023-08-24T21:54:39;7.00;5.50;4.00
68841;PMS5003;55849;48.482;2.332;2023-08-24T21:57:40;5.25;4.25;4.00
68841;PMS5003;55849;48.482;2.332;2023-08-24T22:00:42;7.50;6.00;3.50
68841;PMS5003;55849;48.482;2.332;2023-08-24T22:03:44;5.50;5.00;4.00
68841;PMS5003;55849;48.482;2.332;2023-08-24T22:06:46;5.00;5.00;4.00
68841;PMS5003;55849;48.482;2.332;2023-08-24T22:09:49;6.25;6.25;4.75
68841;PMS5003;55849;48.482;2.332;2023-08-24T22:12:50;8.75;7.00;5.00
68841;PMS5003;55849;48.482;2.332;2023-08-24T22:15:52;5.50;5.50;4.00
68841;PMS5003;55849;48.482;2.332;2023-08-24T22:18:55;3.75;2.00;0.75
68841;PMS5003;55849;48.482;2.332;2023-08-24T22:21:56;6.50;5.50;4.00
68841;PMS5003;55849;48.482;2.332;2023-08-24T22:24:59;6.00;5.00;4.50
68841;PMS5003;55849;48.482;2.332;2023-08-24T22:28:01;5.25;5.25;4.00
68841;PMS5003;55849;48.482;2.332;2023-08-24T22:31:03;7.25;6.00;4.75
